Ukiah, Oregon
Current Conditions -  °F | °C
As of 10:46 PM on Saturday 20 Dec 2014 (Local Time) from KMEH Reporting Station
Overcast Overcast  
Wind Chill: 40°   Ceiling: 3000
Heat Index: 40°   Visibility: 8mi
Dew Point: 39°   Wind: 0mph
Humidity: 97%   Direction: NA
Pressure: 29.66"   Gusts: NA
Location:  45.13°N, 118.93°W
Report Text: KMEH 210646Z AUTO 00000KT 8SM OVC030 04/04 A2966 RMK AO2 RAE21 P0002 T00440039
Loading
Personal Weather Stations






























Interactive Weather Map New forecast layout! Learn more

10-Day Weather Forecast

Advertisements
Track Severe Weather on mobile